Stations météo

Publicité
Toulon Arsenal, France (7660): Température de l'air & dewpoint: 19.11.2020 22:00:00 - 25.11.2020 22:00:00 (CET)Toulon Arsenal, France (7660): Vitesse du vent & gusts: 19.11.2020 22:00:00 - 25.11.2020 22:00:00 (CET)Toulon Arsenal, France (7660): Direction du vent: 19.11.2020 22:00:00 - 25.11.2020 22:00:00 (CET)Toulon Arsenal, France (7660): reduced air pressure: 19.11.2020 22:00:00 - 25.11.2020 22:00:00 (CET)Toulon Arsenal, France (7660): Quantités de précipitations: 19.11.2020 22:00:00 - 25.11.2020 22:00:00 (CET)
Date & Time tt [°C] td [°C] ff [km/h] ff [knt] fx [km/h] fx [knt] dd ppp [hPa] rr [mm]
25.11.2020 22:00:00 - - - - - - - - -
25.11.2020 21:00:00 14,1 8,1 12 7 35 19 E 1021,8 0,0
25.11.2020 20:00:00 13,9 7,6 14 7 30 16 E 1021,8 0,0
25.11.2020 19:00:00 13,8 7,6 13 7 29 15 E 1021,6 0,0
25.11.2020 18:00:00 13,9 7,2 11 6 23 12 E 1021,3 0,0
25.11.2020 17:00:00 14,4 7,4 13 7 27 15 E 1020,9 0,0
25.11.2020 16:00:00 14,6 7,4 14 8 36 20 E 1020,8 0,0
25.11.2020 15:00:00 15,2 7,2 22 12 38 20 E 1020,7 0,0
25.11.2020 14:00:00 15,5 6,2 16 9 29 16 E 1021,1 0,0
25.11.2020 13:00:00 15,4 5,6 16 9 31 17 E 1021,6 0,0
25.11.2020 12:00:00 15,0 6,0 16 9 29 16 E 1022,1 0,0
25.11.2020 11:00:00 14,8 6,9 14 7 29 15 E 1022,5 0,0
25.11.2020 10:00:00 12,9 6,0 6 4 15 8 E 1022,5 0,0
25.11.2020 09:00:00 9,7 6,4 3 2 10 5 NNE 1022,5 0,0
25.11.2020 08:00:00 7,2 5,0 3 1 13 7 NE 1022,2 0,0
25.11.2020 07:00:00 6,5 5,3 4 2 9 5 ENE 1022,0 0,0
25.11.2020 06:00:00 5,6 4,4 2 1 6 4 ENE 1021,9 0,0
25.11.2020 05:00:00 5,3 4,3 2 1 6 3 NE 1022,1 0,0
25.11.2020 04:00:00 5,4 4,0 2 1 6 3 WNW 1022,1 0,0
25.11.2020 03:00:00 6,2 4,2 4 2 9 5 E 1022,5 0,0
25.11.2020 02:00:00 6,1 4,1 0 0 5 3 N 1022,8 0,0
25.11.2020 01:00:00 7,1 4,2 4 2 8 4 E 1023,2 0,0
25.11.2020 00:00:00 8,3 4,9 2 1 10 5 S 1023,7 0,0
24.11.2020 23:00:00 7,4 4,5 3 2 8 5 WNW 1023,8 0,0
24.11.2020 22:00:00 7,7 4,1 4 2 10 5 N 1023,9 0,0
24.11.2020 21:00:00 7,9 4,3 6 3 10 5 N 1024,0 0,0
24.11.2020 20:00:00 8,4 4,8 5 3 11 6 N 1024,0 0,0
24.11.2020 19:00:00 9,3 5,1 4 2 10 6 NNE 1023,9 0,0
24.11.2020 18:00:00 11,6 5,5 5 3 18 10 ENE 1023,8 0,0
24.11.2020 17:00:00 13,9 5,5 10 5 24 13 E 1023,7 0,0
24.11.2020 16:00:00 14,8 6,1 13 7 27 14 E 1023,7 0,0
24.11.2020 15:00:00 14,9 7,7 14 8 28 15 E 1023,9 0,0
24.11.2020 14:00:00 14,8 7,8 13 7 29 16 E 1024,3 0,0
24.11.2020 13:00:00 14,7 8,0 14 8 27 15 E 1024,8 0,0
24.11.2020 12:00:00 15,3 7,3 16 9 30 16 E 1025,3 0,0
24.11.2020 11:00:00 14,9 7,9 16 8 29 16 E 1025,8 0,0
24.11.2020 10:00:00 13,9 8,1 15 8 26 14 E 1025,6 0,0
24.11.2020 09:00:00 12,3 8,2 11 6 21 12 E 1025,5 0,0
24.11.2020 08:00:00 8,5 7,4 3 1 10 5 NNE 1025,4 0,0
24.11.2020 07:00:00 6,7 6,0 0 0 7 4 N 1025,2 0,0
24.11.2020 06:00:00 6,1 5,2 0 0 6 4 N 1024,9 0,0
24.11.2020 05:00:00 6,4 5,5 0 0 6 3 N 1024,9 0,0
24.11.2020 04:00:00 5,9 5,2 0 0 3 2 N 1025,1 0,0
24.11.2020 03:00:00 5,3 4,6 0 0 4 2 N 1025,5 0,0
24.11.2020 02:00:00 4,6 3,6 0 0 6 3 N 1025,7 0,0
24.11.2020 01:00:00 4,8 3,6 4 2 6 3 NNW 1026,1 0,0
24.11.2020 00:00:00 5,2 3,7 2 1 5 3 NW 1026,2 0,0
23.11.2020 23:00:00 5,8 3,8 3 1 4 2 NW 1026,3 0,0
23.11.2020 22:00:00 6,5 4,0 2 1 7 4 N 1026,2 0,0
23.11.2020 21:00:00 6,4 4,2 3 2 6 4 N 1026,1 0,0
23.11.2020 20:00:00 7,4 5,0 2 1 8 5 W 1026,1 0,0
23.11.2020 19:00:00 7,8 5,1 3 1 5 3 NNW 1025,8 0,0
23.11.2020 18:00:00 9,1 5,5 0 0 9 5 N 1025,8 0,0
23.11.2020 17:00:00 12,5 5,2 8 5 23 12 W 1025,8 0,0
23.11.2020 16:00:00 14,3 6,1 10 5 29 15 W 1026,0 0,0
23.11.2020 15:00:00 14,6 7,2 14 8 30 16 W 1026,1 0,0
23.11.2020 14:00:00 15,1 8,1 13 7 26 14 W 1026,4 0,0
23.11.2020 13:00:00 15,1 7,1 15 8 24 13 WSW 1027,0 0,0
23.11.2020 12:00:00 14,8 6,9 13 7 22 12 WSW 1027,7 0,0
23.11.2020 11:00:00 12,7 6,7 4 2 10 5 SE 1028,6 0,0
23.11.2020 10:00:00 10,2 6,3 0 0 4 2 N 1028,5 0,0
23.11.2020 09:00:00 7,2 5,7 0 0 5 3 N 1028,4 0,0
23.11.2020 08:00:00 4,6 3,6 0 0 6 3 N 1028,1 0,0
23.11.2020 07:00:00 4,4 3,1 3 1 6 3 WNW 1028,2 0,0
23.11.2020 06:00:00 4,8 3,5 2 1 5 3 NNE 1028,4 0,0
23.11.2020 05:00:00 5,3 3,3 2 1 6 3 NNW 1028,5 0,0
23.11.2020 04:00:00 6,1 3,6 0 0 5 3 N 1028,8 0,0
23.11.2020 03:00:00 7,2 3,4 0 0 10 6 N 1029,1 0,0
23.11.2020 02:00:00 9,4 3,6 5 3 16 8 ENE 1028,9 0,0
23.11.2020 01:00:00 9,6 4,0 8 4 15 8 N 1029,1 0,0
23.11.2020 00:00:00 10,5 4,6 4 2 13 7 N 1029,3 0,0
22.11.2020 23:00:00 11,8 5,0 4 2 12 7 NNE 1029,3 0,0
22.11.2020 22:00:00 11,2 5,9 5 3 12 7 N 1029,4 0,0
22.11.2020 21:00:00 12,2 6,5 4 2 14 7 ENE 1029,0 0,0
22.11.2020 20:00:00 13,1 6,9 8 4 15 8 E 1028,8 0,0
22.11.2020 19:00:00 11,9 7,8 4 2 16 9 ENE 1028,5 0,0
22.11.2020 18:00:00 10,4 7,3 3 1 7 4 NE 1028,0 0,0
22.11.2020 17:00:00 14,1 7,4 3 2 16 8 SW 1027,4 0,0
22.11.2020 16:00:00 15,3 7,3 10 5 18 10 WSW 1027,1 0,0
22.11.2020 15:00:00 15,8 7,3 10 6 23 12 WSW 1027,2 0,0
22.11.2020 14:00:00 16,1 7,0 11 6 23 12 WSW 1027,5 0,0
22.11.2020 13:00:00 15,6 6,6 13 7 21 11 WSW 1028,1 0,0
22.11.2020 12:00:00 15,4 5,9 9 5 18 10 W 1028,7 0,0
22.11.2020 11:00:00 13,1 7,1 4 2 11 6 SE 1029,2 0,0
22.11.2020 10:00:00 11,3 5,0 4 2 6 3 ESE 1029,3 0,0
22.11.2020 09:00:00 7,8 5,6 2 1 5 3 WNW 1029,3 0,0
22.11.2020 08:00:00 3,8 2,8 2 1 5 3 W 1029,1 0,0
22.11.2020 07:00:00 3,8 2,6 2 1 5 3 W 1029,0 0,0
22.11.2020 06:00:00 4,1 2,9 0 0 5 3 N 1028,9 0,0
22.11.2020 05:00:00 4,3 3,1 2 1 6 3 NW 1028,8 0,0
22.11.2020 04:00:00 4,9 3,6 2 1 6 3 N 1029,0 0,0
22.11.2020 03:00:00 5,3 3,9 2 1 6 3 E 1029,4 0,0
22.11.2020 02:00:00 5,7 3,7 5 3 13 7 NW 1029,4 0,0
22.11.2020 01:00:00 6,0 4,0 2 1 16 9 N 1029,5 0,0
22.11.2020 00:00:00 5,7 3,2 0 0 12 6 N 1029,3 0,0
21.11.2020 23:00:00 6,6 3,9 0 0 11 6 N 1029,5 0,0
21.11.2020 22:00:00 6,4 4,4 0 0 8 4 N 1029,7 0,0
21.11.2020 21:00:00 6,8 4,6 3 1 5 3 WNW 1029,7 0,0
21.11.2020 20:00:00 8,3 5,4 2 1 7 4 WNW 1029,7 0,0
21.11.2020 19:00:00 9,3 6,2 2 1 9 5 W 1029,4 0,0
21.11.2020 18:00:00 10,0 6,7 5 3 9 5 N 1029,1 0,0
21.11.2020 17:00:00 13,3 6,9 2 1 15 8 WNW 1028,8 0,0
21.11.2020 16:00:00 14,7 7,3 9 5 22 12 WSW 1028,6 0,0
21.11.2020 15:00:00 15,3 6,3 11 6 21 11 WSW 1028,7 0,0
21.11.2020 14:00:00 15,7 5,3 10 5 18 10 W 1029,1 0,0
21.11.2020 13:00:00 16,3 5,3 7 4 21 11 SSE 1029,2 0,0
21.11.2020 12:00:00 15,5 4,2 9 5 21 11 ESE 1029,1 0,0
21.11.2020 11:00:00 15,1 4,7 5 3 14 8 E 1029,5 0,0
21.11.2020 10:00:00 14,1 5,7 2 1 6 3 SSE 1029,0 0,0
21.11.2020 09:00:00 8,3 4,9 2 1 6 3 WNW 1028,7 0,0
21.11.2020 08:00:00 4,0 2,5 2 1 6 3 NW 1028,3 0,0
21.11.2020 07:00:00 3,8 2,0 2 1 6 3 NE 1027,5 0,0
21.11.2020 06:00:00 4,3 2,3 2 1 6 3 ENE 1026,8 0,0
21.11.2020 05:00:00 4,4 1,9 2 1 5 3 WNW 1026,4 0,0
21.11.2020 04:00:00 4,5 1,2 0 0 6 3 N 1026,0 0,0
21.11.2020 03:00:00 4,7 1,0 0 0 6 3 N 1025,8 0,0
21.11.2020 02:00:00 5,3 0,8 2 1 6 3 N 1025,3 0,0
21.11.2020 01:00:00 6,2 1,5 3 2 8 4 NNE 1025,0 0,0
21.11.2020 00:00:00 6,3 1,8 3 2 7 4 WSW 1024,5 0,0
20.11.2020 23:00:00 6,5 1,2 0 0 6 3 N 1024,4 0,0
20.11.2020 22:00:00 6,8 1,5 0 0 8 4 N 1024,2 0,0
20.11.2020 21:00:00 7,8 1,8 2 1 10 6 NW 1023,8 0,0
20.11.2020 20:00:00 7,8 2,0 2 1 8 5 N 1023,3 0,0
20.11.2020 19:00:00 9,4 2,3 4 2 7 4 NW 1022,6 0,0
20.11.2020 18:00:00 10,9 2,7 2 1 12 6 NNW 1022,1 0,0
20.11.2020 17:00:00 15,3 2,4 8 4 18 10 W 1021,6 0,0
20.11.2020 16:00:00 18,4 -0,5 6 3 19 11 NW 1021,3 0,0
20.11.2020 15:00:00 19,0 -0,4 4 2 17 9 SE 1021,2 0,0
20.11.2020 14:00:00 18,8 -0,6 4 2 21 12 S 1021,3 0,0
20.11.2020 13:00:00 18,5 -2,5 6 3 34 18 W 1021,5 0,0
20.11.2020 12:00:00 17,5 -1,7 11 6 37 20 NNW 1021,6 0,0
20.11.2020 11:00:00 16,1 -1,5 13 7 41 22 NNW 1021,4 0,0
20.11.2020 10:00:00 15,0 -2,0 14 8 41 22 NNW 1021,2 0,0
20.11.2020 09:00:00 14,4 -2,5 6 3 42 23 NW 1021,2 0,0
20.11.2020 08:00:00 11,1 0,8 21 12 37 20 WNW 1020,9 0,0
20.11.2020 07:00:00 13,1 -2,8 12 7 39 21 NNW 1019,7 0,0
20.11.2020 06:00:00 13,0 -2,1 11 6 51 27 NW 1019,4 0,0
20.11.2020 05:00:00 12,6 -1,7 12 6 56 30 WNW 1019,3 0,0
20.11.2020 04:00:00 12,7 -1,6 23 13 70 38 WNW 1019,1 0,0
20.11.2020 03:00:00 11,3 1,5 25 14 64 35 WNW 1020,4 0,0
20.11.2020 02:00:00 11,6 0,9 21 12 56 30 WNW 1021,3 0,0
20.11.2020 01:00:00 12,0 -0,5 26 14 70 38 WNW 1021,6 0,0
20.11.2020 00:00:00 12,2 -0,4 30 16 66 36 WNW 1020,7 0,0
19.11.2020 23:00:00 12,4 -0,2 31 17 64 34 WNW 1020,4 0,0
19.11.2020 22:00:00 13,3 -1,1 12 7 40 21 WNW 1020,8 0,0

tt = Température de l'air
td = dewpoint
ff = Vitesse du vent
fx = gusts
dd = Direction du vent
ppp = reduced air pressure
rr = Quantités de précipitations

stations d'obs. à proximité